Grafton, Virginia
Current Conditions -  °F | °C
As of 4:54 AM on Sunday 23 Nov 2014 (Local Time) from KPHF Reporting Station
Light Rain Light Rain  
Wind Chill: 35°   Ceiling: Unl
Heat Index: 35°   Visibility: 10mi
Dew Point: 28°   Wind: 3mph
Humidity: 76%   Direction: 200°SSW
Pressure: 30.29"   Gusts: NA
Location:  37.1781°N, 76.4669°W
Report Text: KPHF 230954Z 20003KT 10SM -RA CLR 02/M02 A3029 RMK AO2 RAB07E21B52 SLP258 P0000 T00171022 $
Loading
Personal Weather Stations






























Interactive Weather Map New forecast layout! Learn more

10-Day Weather Forecast

Advertisements
Track Severe Weather on mobile